sensor_id;sensor_type;location;lat;lon;timestamp;P1;durP1;ratioP1;P2;durP2;ratioP2
76023;SDS011;64719;52.124;6.226;2022-12-18T00:01:53;60.00;;;21.00;;
76023;SDS011;64719;52.124;6.226;2022-12-18T00:04:24;68.28;;;23.42;;
76023;SDS011;64719;52.124;6.226;2022-12-18T00:06:51;66.63;;;21.92;;
76023;SDS011;64719;52.124;6.226;2022-12-18T00:09:18;63.53;;;20.60;;
76023;SDS011;64719;52.124;6.226;2022-12-18T00:11:45;58.05;;;20.17;;
76023;SDS011;64719;52.124;6.226;2022-12-18T00:14:13;68.43;;;21.70;;
76023;SDS011;64719;52.124;6.226;2022-12-18T00:16:42;71.22;;;20.83;;
76023;SDS011;64719;52.124;6.226;2022-12-18T00:19:12;71.35;;;22.17;;
76023;SDS011;64719;52.124;6.226;2022-12-18T00:21:39;68.28;;;19.98;;
76023;SDS011;64719;52.124;6.226;2022-12-18T00:24:06;62.55;;;20.35;;
76023;SDS011;64719;52.124;6.226;2022-12-18T00:26:34;73.88;;;24.17;;
76023;SDS011;64719;52.124;6.226;2022-12-18T00:29:03;61.92;;;21.88;;
76023;SDS011;64719;52.124;6.226;2022-12-18T00:31:32;60.28;;;20.42;;
76023;SDS011;64719;52.124;6.226;2022-12-18T00:33:59;71.72;;;23.55;;
76023;SDS011;64719;52.124;6.226;2022-12-18T00:36:26;74.18;;;21.83;;
76023;SDS011;64719;52.124;6.226;2022-12-18T00:38:54;75.80;;;24.38;;
76023;SDS011;64719;52.124;6.226;2022-12-18T00:41:22;74.13;;;22.38;;
76023;SDS011;64719;52.124;6.226;2022-12-18T00:44:08;81.57;;;23.23;;
76023;SDS011;64719;52.124;6.226;2022-12-18T00:46:38;85.45;;;26.10;;
76023;SDS011;64719;52.124;6.226;2022-12-18T00:49:04;79.68;;;24.90;;
76023;SDS011;64719;52.124;6.226;2022-12-18T00:51:31;79.28;;;23.75;;
76023;SDS011;64719;52.124;6.226;2022-12-18T00:53:58;79.75;;;24.20;;
76023;SDS011;64719;52.124;6.226;2022-12-18T00:56:24;86.78;;;22.83;;
76023;SDS011;64719;52.124;6.226;2022-12-18T00:58:51;73.28;;;21.50;;
76023;SDS011;64719;52.124;6.226;2022-12-18T01:01:18;60.92;;;21.73;;
76023;SDS011;64719;52.124;6.226;2022-12-18T01:03:46;62.78;;;23.20;;
76023;SDS011;64719;52.124;6.226;2022-12-18T01:06:13;71.15;;;21.85;;
76023;SDS011;64719;52.124;6.226;2022-12-18T01:08:41;79.90;;;23.95;;
76023;SDS011;64719;52.124;6.226;2022-12-18T01:11:08;68.43;;;20.88;;
76023;SDS011;64719;52.124;6.226;2022-12-18T01:13:35;68.93;;;21.33;;
76023;SDS011;64719;52.124;6.226;2022-12-18T01:16:02;79.68;;;23.05;;
76023;SDS011;64719;52.124;6.226;2022-12-18T01:18:29;72.65;;;21.35;;
76023;SDS011;64719;52.124;6.226;2022-12-18T01:20:57;61.47;;;22.42;;
76023;SDS011;64719;52.124;6.226;2022-12-18T01:23:24;72.85;;;22.13;;
76023;SDS011;64719;52.124;6.226;2022-12-18T01:25:50;71.60;;;23.58;;
76023;SDS011;64719;52.124;6.226;2022-12-18T01:28:17;59.47;;;20.95;;
76023;SDS011;64719;52.124;6.226;2022-12-18T01:30:43;60.58;;;20.50;;
76023;SDS011;64719;52.124;6.226;2022-12-18T01:33:10;75.85;;;21.60;;
76023;SDS011;64719;52.124;6.226;2022-12-18T01:35:39;64.38;;;21.15;;
76023;SDS011;64719;52.124;6.226;2022-12-18T01:38:09;61.28;;;21.33;;
76023;SDS011;64719;52.124;6.226;2022-12-18T01:40:35;68.18;;;21.75;;
76023;SDS011;64719;52.124;6.226;2022-12-18T01:43:02;62.75;;;19.67;;
76023;SDS011;64719;52.124;6.226;2022-12-18T01:45:30;70.00;;;20.33;;
76023;SDS011;64719;52.124;6.226;2022-12-18T01:47:58;64.68;;;21.63;;
76023;SDS011;64719;52.124;6.226;2022-12-18T01:50:28;71.07;;;20.85;;
76023;SDS011;64719;52.124;6.226;2022-12-18T01:52:59;63.85;;;20.35;;
76023;SDS011;64719;52.124;6.226;2022-12-18T01:55:32;67.05;;;21.27;;
76023;SDS011;64719;52.124;6.226;2022-12-18T01:58:04;65.75;;;22.52;;
76023;SDS011;64719;52.124;6.226;2022-12-18T02:00:31;60.40;;;21.33;;
76023;SDS011;64719;52.124;6.226;2022-12-18T02:02:57;69.05;;;21.02;;
76023;SDS011;64719;52.124;6.226;2022-12-18T02:05:26;59.53;;;19.75;;
76023;SDS011;64719;52.124;6.226;2022-12-18T02:08:06;62.70;;;21.23;;
76023;SDS011;64719;52.124;6.226;2022-12-18T02:10:43;62.50;;;20.08;;
76023;SDS011;64719;52.124;6.226;2022-12-18T02:13:17;56.03;;;19.13;;
76023;SDS011;64719;52.124;6.226;2022-12-18T02:15:51;60.63;;;20.80;;
76023;SDS011;64719;52.124;6.226;2022-12-18T02:18:26;52.33;;;18.88;;
76023;SDS011;64719;52.124;6.226;2022-12-18T02:20:58;63.13;;;20.85;;
76023;SDS011;64719;52.124;6.226;2022-12-18T02:23:39;59.45;;;22.20;;
76023;SDS011;64719;52.124;6.226;2022-12-18T02:26:19;62.88;;;21.63;;
76023;SDS011;64719;52.124;6.226;2022-12-18T02:28:51;60.67;;;19.20;;
76023;SDS011;64719;52.124;6.226;2022-12-18T02:31:23;57.25;;;20.20;;
76023;SDS011;64719;52.124;6.226;2022-12-18T02:33:53;54.22;;;21.23;;
76023;SDS011;64719;52.124;6.226;2022-12-18T02:36:22;55.60;;;19.15;;
76023;SDS011;64719;52.124;6.226;2022-12-18T02:38:51;61.55;;;21.15;;
76023;SDS011;64719;52.124;6.226;2022-12-18T02:41:22;58.10;;;17.65;;
76023;SDS011;64719;52.124;6.226;2022-12-18T02:43:53;60.88;;;21.38;;
76023;SDS011;64719;52.124;6.226;2022-12-18T02:46:24;54.17;;;18.95;;
76023;SDS011;64719;52.124;6.226;2022-12-18T02:48:54;53.08;;;19.08;;
76023;SDS011;64719;52.124;6.226;2022-12-18T02:51:31;43.97;;;17.30;;
76023;SDS011;64719;52.124;6.226;2022-12-18T02:54:06;59.58;;;19.67;;
76023;SDS011;64719;52.124;6.226;2022-12-18T02:56:44;59.50;;;19.45;;
76023;SDS011;64719;52.124;6.226;2022-12-18T02:59:17;52.50;;;20.48;;
76023;SDS011;64719;52.124;6.226;2022-12-18T03:01:51;58.03;;;20.60;;
76023;SDS011;64719;52.124;6.226;2022-12-18T03:04:25;65.63;;;21.35;;
76023;SDS011;64719;52.124;6.226;2022-12-18T03:06:55;51.22;;;19.25;;
76023;SDS011;64719;52.124;6.226;2022-12-18T03:09:25;53.03;;;18.35;;
76023;SDS011;64719;52.124;6.226;2022-12-18T03:11:58;50.65;;;18.45;;
76023;SDS011;64719;52.124;6.226;2022-12-18T03:14:47;54.40;;;17.20;;
76023;SDS011;64719;52.124;6.226;2022-12-18T03:17:18;53.40;;;18.25;;
76023;SDS011;64719;52.124;6.226;2022-12-18T03:19:50;51.63;;;17.92;;
76023;SDS011;64719;52.124;6.226;2022-12-18T03:22:19;52.75;;;18.73;;
76023;SDS011;64719;52.124;6.226;2022-12-18T03:24:47;42.33;;;16.38;;
76023;SDS011;64719;52.124;6.226;2022-12-18T03:27:18;48.78;;;16.98;;
76023;SDS011;64719;52.124;6.226;2022-12-18T03:29:47;46.80;;;16.85;;
76023;SDS011;64719;52.124;6.226;2022-12-18T03:32:19;50.83;;;18.13;;
76023;SDS011;64719;52.124;6.226;2022-12-18T03:34:51;52.65;;;18.40;;
76023;SDS011;64719;52.124;6.226;2022-12-18T03:37:21;44.05;;;19.58;;
76023;SDS011;64719;52.124;6.226;2022-12-18T03:39:48;50.00;;;17.88;;
76023;SDS011;64719;52.124;6.226;2022-12-18T03:42:17;47.60;;;18.05;;
76023;SDS011;64719;52.124;6.226;2022-12-18T03:44:54;49.78;;;19.58;;
76023;SDS011;64719;52.124;6.226;2022-12-18T03:47:25;49.90;;;17.55;;
76023;SDS011;64719;52.124;6.226;2022-12-18T03:49:56;47.50;;;16.95;;
76023;SDS011;64719;52.124;6.226;2022-12-18T03:52:30;46.72;;;18.08;;
76023;SDS011;64719;52.124;6.226;2022-12-18T03:55:02;58.90;;;17.38;;
76023;SDS011;64719;52.124;6.226;2022-12-18T03:57:32;41.30;;;14.48;;
76023;SDS011;64719;52.124;6.226;2022-12-18T04:00:00;55.63;;;19.25;;
76023;SDS011;64719;52.124;6.226;2022-12-18T04:02:30;47.25;;;17.25;;
76023;SDS011;64719;52.124;6.226;2022-12-18T04:04:59;45.50;;;16.83;;
76023;SDS011;64719;52.124;6.226;2022-12-18T04:07:30;50.65;;;19.27;;
76023;SDS011;64719;52.124;6.226;2022-12-18T04:09:58;55.67;;;19.10;;
76023;SDS011;64719;52.124;6.226;2022-12-18T04:12:27;42.97;;;17.00;;
76023;SDS011;64719;52.124;6.226;2022-12-18T04:14:57;50.78;;;17.45;;
76023;SDS011;64719;52.124;6.226;2022-12-18T04:17:23;35.15;;;15.75;;
76023;SDS011;64719;52.124;6.226;2022-12-18T04:19:50;49.70;;;16.13;;
76023;SDS011;64719;52.124;6.226;2022-12-18T04:22:16;39.25;;;16.33;;
76023;SDS011;64719;52.124;6.226;2022-12-18T04:24:43;36.38;;;16.08;;
76023;SDS011;64719;52.124;6.226;2022-12-18T04:27:10;37.65;;;15.25;;
76023;SDS011;64719;52.124;6.226;2022-12-18T04:29:36;41.60;;;16.65;;
76023;SDS011;64719;52.124;6.226;2022-12-18T04:32:04;36.55;;;13.65;;
76023;SDS011;64719;52.124;6.226;2022-12-18T04:34:31;38.08;;;15.15;;
76023;SDS011;64719;52.124;6.226;2022-12-18T04:36:57;39.25;;;14.50;;
76023;SDS011;64719;52.124;6.226;2022-12-18T04:39:24;40.28;;;14.32;;
76023;SDS011;64719;52.124;6.226;2022-12-18T04:41:50;34.85;;;15.07;;
76023;SDS011;64719;52.124;6.226;2022-12-18T04:44:17;42.03;;;16.17;;
76023;SDS011;64719;52.124;6.226;2022-12-18T04:46:43;33.78;;;12.68;;
76023;SDS011;64719;52.124;6.226;2022-12-18T04:49:11;35.05;;;15.60;;
76023;SDS011;64719;52.124;6.226;2022-12-18T04:51:38;37.38;;;14.32;;
76023;SDS011;64719;52.124;6.226;2022-12-18T04:54:05;31.92;;;12.73;;
76023;SDS011;64719;52.124;6.226;2022-12-18T04:56:31;40.55;;;16.45;;
76023;SDS011;64719;52.124;6.226;2022-12-18T04:58:58;37.13;;;15.20;;
76023;SDS011;64719;52.124;6.226;2022-12-18T05:01:25;36.00;;;16.88;;
76023;SDS011;64719;52.124;6.226;2022-12-18T05:03:51;42.70;;;15.60;;
76023;SDS011;64719;52.124;6.226;2022-12-18T05:06:19;41.80;;;15.23;;
76023;SDS011;64719;52.124;6.226;2022-12-18T05:08:46;29.08;;;13.02;;
76023;SDS011;64719;52.124;6.226;2022-12-18T05:11:13;26.88;;;13.25;;
76023;SDS011;64719;52.124;6.226;2022-12-18T05:13:41;31.50;;;15.10;;
76023;SDS011;64719;52.124;6.226;2022-12-18T05:16:09;26.58;;;13.20;;
76023;SDS011;64719;52.124;6.226;2022-12-18T05:18:36;32.90;;;14.27;;
76023;SDS011;64719;52.124;6.226;2022-12-18T05:21:03;35.35;;;13.27;;
76023;SDS011;64719;52.124;6.226;2022-12-18T05:23:32;33.70;;;13.88;;
76023;SDS011;64719;52.124;6.226;2022-12-18T05:25:59;32.53;;;13.82;;
76023;SDS011;64719;52.124;6.226;2022-12-18T05:28:27;25.80;;;11.88;;
76023;SDS011;64719;52.124;6.226;2022-12-18T05:30:56;39.78;;;14.88;;
76023;SDS011;64719;52.124;6.226;2022-12-18T05:33:25;36.85;;;13.75;;
76023;SDS011;64719;52.124;6.226;2022-12-18T05:35:53;29.17;;;14.70;;
76023;SDS011;64719;52.124;6.226;2022-12-18T05:38:21;26.73;;;11.40;;
76023;SDS011;64719;52.124;6.226;2022-12-18T05:40:50;29.98;;;11.90;;
76023;SDS011;64719;52.124;6.226;2022-12-18T05:43:17;26.88;;;11.98;;
76023;SDS011;64719;52.124;6.226;2022-12-18T05:45:46;36.90;;;13.00;;
76023;SDS011;64719;52.124;6.226;2022-12-18T05:48:14;28.73;;;13.00;;
76023;SDS011;64719;52.124;6.226;2022-12-18T05:50:42;28.73;;;11.02;;
76023;SDS011;64719;52.124;6.226;2022-12-18T05:53:10;31.10;;;12.88;;
76023;SDS011;64719;52.124;6.226;2022-12-18T05:55:38;29.90;;;12.73;;
76023;SDS011;64719;52.124;6.226;2022-12-18T05:58:07;27.02;;;11.15;;
76023;SDS011;64719;52.124;6.226;2022-12-18T06:00:36;30.02;;;11.85;;
76023;SDS011;64719;52.124;6.226;2022-12-18T06:03:04;35.60;;;12.70;;
76023;SDS011;64719;52.124;6.226;2022-12-18T06:05:34;30.70;;;12.57;;
76023;SDS011;64719;52.124;6.226;2022-12-18T06:08:01;24.00;;;11.32;;
76023;SDS011;64719;52.124;6.226;2022-12-18T06:10:27;26.92;;;12.20;;
76023;SDS011;64719;52.124;6.226;2022-12-18T06:12:54;30.88;;;13.13;;
76023;SDS011;64719;52.124;6.226;2022-12-18T06:15:22;29.13;;;12.95;;
76023;SDS011;64719;52.124;6.226;2022-12-18T06:17:49;31.10;;;13.20;;
76023;SDS011;64719;52.124;6.226;2022-12-18T06:20:16;37.67;;;12.75;;
76023;SDS011;64719;52.124;6.226;2022-12-18T06:22:42;26.27;;;11.68;;
76023;SDS011;64719;52.124;6.226;2022-12-18T06:25:09;34.88;;;13.65;;
76023;SDS011;64719;52.124;6.226;2022-12-18T06:27:35;32.17;;;13.75;;
76023;SDS011;64719;52.124;6.226;2022-12-18T06:30:02;28.27;;;12.55;;
76023;SDS011;64719;52.124;6.226;2022-12-18T06:32:31;32.50;;;12.65;;
76023;SDS011;64719;52.124;6.226;2022-12-18T06:34:57;33.25;;;12.93;;
76023;SDS011;64719;52.124;6.226;2022-12-18T06:37:24;31.10;;;13.65;;
76023;SDS011;64719;52.124;6.226;2022-12-18T06:39:51;28.63;;;11.48;;
76023;SDS011;64719;52.124;6.226;2022-12-18T06:42:17;28.30;;;11.52;;
76023;SDS011;64719;52.124;6.226;2022-12-18T06:44:44;33.53;;;12.85;;
76023;SDS011;64719;52.124;6.226;2022-12-18T06:47:10;34.17;;;11.57;;
76023;SDS011;64719;52.124;6.226;2022-12-18T06:49:38;29.83;;;14.02;;
76023;SDS011;64719;52.124;6.226;2022-12-18T06:52:05;26.90;;;12.27;;
76023;SDS011;64719;52.124;6.226;2022-12-18T06:54:31;20.35;;;10.25;;
76023;SDS011;64719;52.124;6.226;2022-12-18T06:56:58;23.90;;;11.43;;
76023;SDS011;64719;52.124;6.226;2022-12-18T06:59:25;39.50;;;13.77;;
76023;SDS011;64719;52.124;6.226;2022-12-18T07:01:51;24.77;;;12.60;;
76023;SDS011;64719;52.124;6.226;2022-12-18T07:04:18;33.10;;;14.15;;
76023;SDS011;64719;52.124;6.226;2022-12-18T07:06:46;25.17;;;13.85;;
76023;SDS011;64719;52.124;6.226;2022-12-18T07:09:12;29.60;;;12.38;;
76023;SDS011;64719;52.124;6.226;2022-12-18T07:11:39;26.63;;;10.77;;
76023;SDS011;64719;52.124;6.226;2022-12-18T07:14:05;41.53;;;13.63;;
76023;SDS011;64719;52.124;6.226;2022-12-18T07:16:32;32.38;;;15.60;;
76023;SDS011;64719;52.124;6.226;2022-12-18T07:18:58;31.98;;;11.77;;
76023;SDS011;64719;52.124;6.226;2022-12-18T07:21:25;27.55;;;10.88;;
76023;SDS011;64719;52.124;6.226;2022-12-18T07:23:53;29.63;;;11.38;;
76023;SDS011;64719;52.124;6.226;2022-12-18T07:26:20;33.50;;;13.57;;
76023;SDS011;64719;52.124;6.226;2022-12-18T07:28:47;26.05;;;12.00;;
76023;SDS011;64719;52.124;6.226;2022-12-18T07:31:16;26.13;;;11.70;;
76023;SDS011;64719;52.124;6.226;2022-12-18T07:33:44;23.60;;;12.25;;
76023;SDS011;64719;52.124;6.226;2022-12-18T07:36:12;22.83;;;12.07;;
76023;SDS011;64719;52.124;6.226;2022-12-18T07:38:38;27.13;;;11.73;;
76023;SDS011;64719;52.124;6.226;2022-12-18T07:41:07;25.77;;;12.60;;
76023;SDS011;64719;52.124;6.226;2022-12-18T07:43:35;25.33;;;11.23;;
76023;SDS011;64719;52.124;6.226;2022-12-18T07:46:02;27.40;;;12.85;;
76023;SDS011;64719;52.124;6.226;2022-12-18T07:48:29;24.48;;;11.50;;
76023;SDS011;64719;52.124;6.226;2022-12-18T07:50:57;27.52;;;12.93;;
76023;SDS011;64719;52.124;6.226;2022-12-18T07:53:24;27.65;;;11.25;;
76023;SDS011;64719;52.124;6.226;2022-12-18T07:55:54;26.75;;;12.35;;
76023;SDS011;64719;52.124;6.226;2022-12-18T07:58:22;30.00;;;11.68;;
76023;SDS011;64719;52.124;6.226;2022-12-18T08:00:49;26.52;;;11.85;;
76023;SDS011;64719;52.124;6.226;2022-12-18T08:03:17;32.10;;;13.45;;
76023;SDS011;64719;52.124;6.226;2022-12-18T08:05:44;25.23;;;11.45;;
76023;SDS011;64719;52.124;6.226;2022-12-18T08:08:10;28.05;;;11.27;;
76023;SDS011;64719;52.124;6.226;2022-12-18T08:10:37;26.50;;;12.88;;
76023;SDS011;64719;52.124;6.226;2022-12-18T08:13:04;23.70;;;12.23;;
76023;SDS011;64719;52.124;6.226;2022-12-18T08:15:32;40.38;;;15.00;;
76023;SDS011;64719;52.124;6.226;2022-12-18T08:17:58;34.17;;;14.55;;
76023;SDS011;64719;52.124;6.226;2022-12-18T08:20:25;37.88;;;16.35;;
76023;SDS011;64719;52.124;6.226;2022-12-18T08:22:51;24.42;;;13.05;;
76023;SDS011;64719;52.124;6.226;2022-12-18T08:25:19;21.85;;;11.30;;
76023;SDS011;64719;52.124;6.226;2022-12-18T08:27:45;19.67;;;10.73;;
76023;SDS011;64719;52.124;6.226;2022-12-18T08:30:12;28.30;;;12.55;;
76023;SDS011;64719;52.124;6.226;2022-12-18T08:32:40;25.80;;;11.45;;
76023;SDS011;64719;52.124;6.226;2022-12-18T08:35:07;25.30;;;10.48;;
76023;SDS011;64719;52.124;6.226;2022-12-18T08:37:36;28.17;;;12.82;;
76023;SDS011;64719;52.124;6.226;2022-12-18T08:40:03;27.50;;;16.42;;
76023;SDS011;64719;52.124;6.226;2022-12-18T08:42:31;23.00;;;13.15;;
76023;SDS011;64719;52.124;6.226;2022-12-18T08:45:18;25.60;;;12.40;;
76023;SDS011;64719;52.124;6.226;2022-12-18T08:47:46;22.52;;;10.45;;
76023;SDS011;64719;52.124;6.226;2022-12-18T08:50:12;17.50;;;9.00;;
76023;SDS011;64719;52.124;6.226;2022-12-18T08:52:39;20.77;;;9.88;;
76023;SDS011;64719;52.124;6.226;2022-12-18T08:55:07;25.05;;;9.80;;
76023;SDS011;64719;52.124;6.226;2022-12-18T08:57:34;19.73;;;9.95;;
76023;SDS011;64719;52.124;6.226;2022-12-18T09:00:01;19.23;;;8.60;;
76023;SDS011;64719;52.124;6.226;2022-12-18T09:02:28;18.05;;;9.55;;
76023;SDS011;64719;52.124;6.226;2022-12-18T09:04:55;18.83;;;8.70;;
76023;SDS011;64719;52.124;6.226;2022-12-18T09:07:22;16.40;;;7.38;;
76023;SDS011;64719;52.124;6.226;2022-12-18T09:09:48;15.38;;;8.05;;
76023;SDS011;64719;52.124;6.226;2022-12-18T09:12:15;17.45;;;8.73;;
76023;SDS011;64719;52.124;6.226;2022-12-18T09:14:42;17.35;;;8.65;;
76023;SDS011;64719;52.124;6.226;2022-12-18T09:17:08;21.85;;;9.48;;
76023;SDS011;64719;52.124;6.226;2022-12-18T09:19:35;15.30;;;7.85;;
76023;SDS011;64719;52.124;6.226;2022-12-18T09:22:03;17.20;;;8.35;;
76023;SDS011;64719;52.124;6.226;2022-12-18T09:24:29;16.67;;;8.40;;
76023;SDS011;64719;52.124;6.226;2022-12-18T09:26:56;17.38;;;8.55;;
76023;SDS011;64719;52.124;6.226;2022-12-18T09:29:22;16.23;;;8.43;;
76023;SDS011;64719;52.124;6.226;2022-12-18T09:31:49;16.75;;;7.70;;
76023;SDS011;64719;52.124;6.226;2022-12-18T09:34:16;19.92;;;9.20;;
76023;SDS011;64719;52.124;6.226;2022-12-18T09:36:42;14.45;;;7.65;;
76023;SDS011;64719;52.124;6.226;2022-12-18T09:39:10;19.30;;;8.80;;
76023;SDS011;64719;52.124;6.226;2022-12-18T09:41:39;15.85;;;8.02;;
76023;SDS011;64719;52.124;6.226;2022-12-18T09:44:19;15.10;;;8.90;;
76023;SDS011;64719;52.124;6.226;2022-12-18T09:46:50;15.10;;;7.10;;
76023;SDS011;64719;52.124;6.226;2022-12-18T09:49:23;16.50;;;8.52;;
76023;SDS011;64719;52.124;6.226;2022-12-18T09:51:55;16.77;;;7.80;;
76023;SDS011;64719;52.124;6.226;2022-12-18T09:54:29;13.60;;;7.10;;
76023;SDS011;64719;52.124;6.226;2022-12-18T09:57:02;14.60;;;7.93;;
76023;SDS011;64719;52.124;6.226;2022-12-18T09:59:30;15.98;;;7.28;;
76023;SDS011;64719;52.124;6.226;2022-12-18T10:02:00;13.10;;;7.10;;
76023;SDS011;64719;52.124;6.226;2022-12-18T10:04:34;12.93;;;7.30;;
76023;SDS011;64719;52.124;6.226;2022-12-18T10:07:02;12.27;;;7.03;;
76023;SDS011;64719;52.124;6.226;2022-12-18T10:09:38;16.02;;;8.25;;
76023;SDS011;64719;52.124;6.226;2022-12-18T10:12:12;16.63;;;8.30;;
76023;SDS011;64719;52.124;6.226;2022-12-18T10:14:49;15.85;;;7.68;;
76023;SDS011;64719;52.124;6.226;2022-12-18T10:17:24;14.30;;;7.03;;
76023;SDS011;64719;52.124;6.226;2022-12-18T10:19:59;15.93;;;7.57;;
76023;SDS011;64719;52.124;6.226;2022-12-18T10:22:35;17.15;;;7.13;;
76023;SDS011;64719;52.124;6.226;2022-12-18T10:25:14;12.98;;;6.70;;
76023;SDS011;64719;52.124;6.226;2022-12-18T10:27:46;15.18;;;7.55;;
76023;SDS011;64719;52.124;6.226;2022-12-18T10:30:15;13.73;;;7.65;;
76023;SDS011;64719;52.124;6.226;2022-12-18T10:32:43;12.68;;;7.05;;
76023;SDS011;64719;52.124;6.226;2022-12-18T10:35:13;16.60;;;8.45;;
76023;SDS011;64719;52.124;6.226;2022-12-18T10:38:05;9.93;;;6.75;;
76023;SDS011;64719;52.124;6.226;2022-12-18T10:40:36;10.13;;;7.15;;
76023;SDS011;64719;52.124;6.226;2022-12-18T10:43:16;12.00;;;7.32;;
76023;SDS011;64719;52.124;6.226;2022-12-18T10:45:57;13.85;;;7.47;;
76023;SDS011;64719;52.124;6.226;2022-12-18T10:48:30;13.98;;;6.55;;
76023;SDS011;64719;52.124;6.226;2022-12-18T10:50:58;12.13;;;7.07;;
76023;SDS011;64719;52.124;6.226;2022-12-18T10:53:26;13.48;;;7.10;;
76023;SDS011;64719;52.124;6.226;2022-12-18T10:55:57;13.10;;;7.18;;
76023;SDS011;64719;52.124;6.226;2022-12-18T10:58:27;13.02;;;6.43;;
76023;SDS011;64719;52.124;6.226;2022-12-18T11:01:03;13.70;;;6.80;;
76023;SDS011;64719;52.124;6.226;2022-12-18T11:03:33;11.35;;;6.28;;
76023;SDS011;64719;52.124;6.226;2022-12-18T11:06:03;13.00;;;6.40;;
76023;SDS011;64719;52.124;6.226;2022-12-18T11:08:31;12.27;;;6.88;;
76023;SDS011;64719;52.124;6.226;2022-12-18T11:10:59;14.43;;;6.88;;
76023;SDS011;64719;52.124;6.226;2022-12-18T11:13:27;14.77;;;6.05;;
76023;SDS011;64719;52.124;6.226;2022-12-18T11:15:55;15.95;;;8.00;;
76023;SDS011;64719;52.124;6.226;2022-12-18T11:18:24;11.38;;;6.38;;
76023;SDS011;64719;52.124;6.226;2022-12-18T11:20:54;14.05;;;8.60;;
76023;SDS011;64719;52.124;6.226;2022-12-18T11:23:23;14.70;;;8.57;;
76023;SDS011;64719;52.124;6.226;2022-12-18T11:25:51;13.07;;;7.03;;
76023;SDS011;64719;52.124;6.226;2022-12-18T11:28:27;13.43;;;6.50;;
76023;SDS011;64719;52.124;6.226;2022-12-18T11:34:01;12.70;;;6.43;;
76023;SDS011;64719;52.124;6.226;2022-12-18T11:36:34;13.75;;;7.07;;
76023;SDS011;64719;52.124;6.226;2022-12-18T11:39:07;13.60;;;6.30;;
76023;SDS011;64719;52.124;6.226;2022-12-18T11:41:39;11.82;;;6.38;;
76023;SDS011;64719;52.124;6.226;2022-12-18T11:44:43;13.35;;;6.63;;
76023;SDS011;64719;52.124;6.226;2022-12-18T11:47:16;14.80;;;6.82;;
76023;SDS011;64719;52.124;6.226;2022-12-18T11:49:51;12.48;;;6.53;;
76023;SDS011;64719;52.124;6.226;2022-12-18T11:52:22;13.57;;;7.75;;
76023;SDS011;64719;52.124;6.226;2022-12-18T11:54:51;11.15;;;6.03;;
76023;SDS011;64719;52.124;6.226;2022-12-18T11:57:21;14.02;;;6.82;;
76023;SDS011;64719;52.124;6.226;2022-12-18T12:00:01;13.15;;;7.03;;
76023;SDS011;64719;52.124;6.226;2022-12-18T12:02:41;11.13;;;6.65;;
76023;SDS011;64719;52.124;6.226;2022-12-18T12:05:29;12.85;;;6.63;;
76023;SDS011;64719;52.124;6.226;2022-12-18T12:08:08;14.18;;;7.18;;
76023;SDS011;64719;52.124;6.226;2022-12-18T12:10:43;11.38;;;6.55;;
76023;SDS011;64719;52.124;6.226;2022-12-18T12:13:26;13.02;;;6.90;;
76023;SDS011;64719;52.124;6.226;2022-12-18T12:16:06;13.38;;;6.70;;
76023;SDS011;64719;52.124;6.226;2022-12-18T12:18:45;12.43;;;6.38;;
76023;SDS011;64719;52.124;6.226;2022-12-18T12:23:54;12.52;;;6.38;;
76023;SDS011;64719;52.124;6.226;2022-12-18T12:26:30;13.15;;;7.00;;
76023;SDS011;64719;52.124;6.226;2022-12-18T12:29:13;12.55;;;7.13;;
76023;SDS011;64719;52.124;6.226;2022-12-18T12:31:59;13.93;;;6.32;;
76023;SDS011;64719;52.124;6.226;2022-12-18T12:34:39;11.38;;;7.28;;
76023;SDS011;64719;52.124;6.226;2022-12-18T12:37:17;11.88;;;6.95;;
76023;SDS011;64719;52.124;6.226;2022-12-18T12:39:51;11.55;;;7.10;;
76023;SDS011;64719;52.124;6.226;2022-12-18T12:42:23;10.95;;;6.55;;
76023;SDS011;64719;52.124;6.226;2022-12-18T12:45:15;13.65;;;6.35;;
76023;SDS011;64719;52.124;6.226;2022-12-18T12:47:46;13.18;;;6.68;;
76023;SDS011;64719;52.124;6.226;2022-12-18T12:50:16;10.25;;;6.63;;
76023;SDS011;64719;52.124;6.226;2022-12-18T12:52:45;11.15;;;6.28;;
76023;SDS011;64719;52.124;6.226;2022-12-18T12:55:16;11.23;;;6.63;;
76023;SDS011;64719;52.124;6.226;2022-12-18T12:57:45;13.27;;;7.00;;
76023;SDS011;64719;52.124;6.226;2022-12-18T13:00:18;14.05;;;6.93;;
76023;SDS011;64719;52.124;6.226;2022-12-18T13:02:48;14.35;;;6.97;;
76023;SDS011;64719;52.124;6.226;2022-12-18T13:05:21;14.30;;;7.47;;
76023;SDS011;64719;52.124;6.226;2022-12-18T13:07:53;12.00;;;6.75;;
76023;SDS011;64719;52.124;6.226;2022-12-18T13:10:24;10.38;;;6.55;;
76023;SDS011;64719;52.124;6.226;2022-12-18T13:12:58;10.02;;;6.55;;
76023;SDS011;64719;52.124;6.226;2022-12-18T13:15:29;11.38;;;6.53;;
76023;SDS011;64719;52.124;6.226;2022-12-18T13:18:16;12.23;;;6.78;;
76023;SDS011;64719;52.124;6.226;2022-12-18T13:20:45;13.65;;;7.13;;
76023;SDS011;64719;52.124;6.226;2022-12-18T13:23:23;12.10;;;6.20;;
76023;SDS011;64719;52.124;6.226;2022-12-18T13:25:54;13.70;;;6.95;;
76023;SDS011;64719;52.124;6.226;2022-12-18T13:28:22;12.60;;;6.40;;
76023;SDS011;64719;52.124;6.226;2022-12-18T13:31:10;12.75;;;7.30;;
76023;SDS011;64719;52.124;6.226;2022-12-18T13:33:40;11.48;;;6.13;;
76023;SDS011;64719;52.124;6.226;2022-12-18T13:36:10;12.98;;;6.88;;
76023;SDS011;64719;52.124;6.226;2022-12-18T13:38:40;9.95;;;6.22;;
76023;SDS011;64719;52.124;6.226;2022-12-18T13:41:21;9.80;;;6.60;;
76023;SDS011;64719;52.124;6.226;2022-12-18T13:43:49;12.93;;;6.78;;
76023;SDS011;64719;52.124;6.226;2022-12-18T13:46:19;12.77;;;6.75;;
76023;SDS011;64719;52.124;6.226;2022-12-18T13:48:53;10.23;;;6.28;;
76023;SDS011;64719;52.124;6.226;2022-12-18T13:51:22;9.48;;;6.05;;
76023;SDS011;64719;52.124;6.226;2022-12-18T13:53:51;11.15;;;6.65;;
76023;SDS011;64719;52.124;6.226;2022-12-18T13:56:22;12.80;;;6.07;;
76023;SDS011;64719;52.124;6.226;2022-12-18T13:59:03;13.07;;;7.25;;
76023;SDS011;64719;52.124;6.226;2022-12-18T14:01:33;12.48;;;6.43;;
76023;SDS011;64719;52.124;6.226;2022-12-18T14:04:10;13.02;;;6.55;;
76023;SDS011;64719;52.124;6.226;2022-12-18T14:06:37;12.43;;;6.63;;
76023;SDS011;64719;52.124;6.226;2022-12-18T14:09:04;17.17;;;8.18;;
76023;SDS011;64719;52.124;6.226;2022-12-18T14:11:31;12.73;;;7.57;;
76023;SDS011;64719;52.124;6.226;2022-12-18T14:13:58;11.73;;;6.68;;
76023;SDS011;64719;52.124;6.226;2022-12-18T14:16:25;15.43;;;7.50;;
76023;SDS011;64719;52.124;6.226;2022-12-18T14:18:52;12.20;;;7.38;;
76023;SDS011;64719;52.124;6.226;2022-12-18T14:21:22;14.68;;;7.35;;
76023;SDS011;64719;52.124;6.226;2022-12-18T14:24:05;10.80;;;6.53;;
76023;SDS011;64719;52.124;6.226;2022-12-18T14:26:38;13.13;;;6.75;;
76023;SDS011;64719;52.124;6.226;2022-12-18T14:29:18;13.68;;;7.53;;
76023;SDS011;64719;52.124;6.226;2022-12-18T14:32:06;11.82;;;6.85;;
76023;SDS011;64719;52.124;6.226;2022-12-18T14:34:35;10.93;;;6.65;;
76023;SDS011;64719;52.124;6.226;2022-12-18T14:37:03;12.50;;;6.45;;
76023;SDS011;64719;52.124;6.226;2022-12-18T14:39:30;11.63;;;6.60;;
76023;SDS011;64719;52.124;6.226;2022-12-18T14:41:56;13.93;;;8.02;;
76023;SDS011;64719;52.124;6.226;2022-12-18T14:44:23;36.35;;;14.75;;
76023;SDS011;64719;52.124;6.226;2022-12-18T14:46:49;35.28;;;13.85;;
76023;SDS011;64719;52.124;6.226;2022-12-18T14:49:22;136.85;;;38.90;;